This is the latest recevied weather packets stored in our database for station/object KM6YFK-13. If no packets are shown the sender has not sent any weather packets the latest 10 day(s).
| Time | Temp. | Humidity | Pressure | Rain* | Wind** | Luminosity | Snow |
|---|---|---|---|---|---|---|---|
| 1778025508 | 23.33° C | 58% | 1015.5 hPa | 0 mm | - | 5 W/m² | - |
| 1778025210 | 23.33° C | 57% | 1015.6 hPa | 0 mm | - | 8 W/m² | - |
| 1778024910 | 23.33° C | 55% | 1015.5 hPa | 0 mm | - | 11 W/m² | - |
| 1778024608 | 23.89° C | 53% | 1015.5 hPa | 0 mm | - | 15 W/m² | - |
| 1778024310 | 23.89° C | 52% | 1015.6 hPa | 0 mm | - | 18 W/m² | - |
| 1778024007 | 23.89° C | 53% | 1015.5 hPa | 0 mm | - | 23 W/m² | - |
| 1778023708 | 24.44° C | 53% | 1015.6 hPa | 0 mm | - | 32 W/m² | - |
| 1778023408 | 24.44° C | 53% | 1015.6 hPa | 0 mm | - | 43 W/m² | - |
| 1778023107 | 24.44° C | 52% | 1015.6 hPa | 0 mm | - | 64 W/m² | - |
| 1778022809 | 24.44° C | 53% | 1015.7 hPa | 0 mm | - | 69 W/m² | - |
| 1778022509 | 25° C | 53% | 1015.7 hPa | 0 mm | - | 81 W/m² | - |
| 1778022210 | 25° C | 52% | 1015.7 hPa | 0 mm | - | 97 W/m² | - |
| 1778021909 | 25° C | 51% | 1015.6 hPa | 0 mm | - | 114 W/m² | - |
| 1778021609 | 25° C | 50% | 1015.7 hPa | 0 mm | - | 120 W/m² | - |
| 1778021308 | 25° C | 49% | 1015.6 hPa | 0 mm | - | 149 W/m² | - |
| 1778021008 | 25° C | 49% | 1015.8 hPa | 0 mm | - | 163 W/m² | - |
| 1778020710 | 25° C | 48% | 1015.7 hPa | 0 mm | - | 178 W/m² | - |
| 1778020409 | 25° C | 48% | 1015.7 hPa | 0 mm | - | 189 W/m² | - |
| 1778020108 | 25.56° C | 46% | 1015.7 hPa | 0 mm | - | 218 W/m² | - |
| 1778019809 | 25.56° C | 47% | 1015.6 hPa | 0 mm | - | 244 W/m² | - |
| 1778019509 | 25.56° C | 49% | 1015.7 hPa | 0 mm | - | 272 W/m² | - |
| 1778019210 | 25.56° C | 50% | 1015.7 hPa | 0 mm | - | 298 W/m² | - |
| 1778018907 | 25.56° C | 49% | 1015.8 hPa | 0 mm | - | 316 W/m² | - |
| 1778018611 | 25.56° C | 46% | 1015.8 hPa | 0 mm | - | 282 W/m² | - |
| 1778018310 | 25.56° C | 47% | 1015.7 hPa | 0 mm | - | 328 W/m² | - |
* Rain latest hour (hover to see other rain measurements)
** Current wind speed in m/s (hover to see current wind gust speed)